Time;durP1;ratioP1;P1;durP2;ratioP2;P2;SDS_P1;SDS_P2;PMS_P1;PMS_P2;Temp;Humidity;BMP_temperature;BMP_pressure;BME280_temperature;BME280_humidity;BME280_pressure;Samples;Min_cycle;Max_cycle;Signal;HPM_P1;HPM_P2
2023/08/19 00:02:14;;;;;;;15.38;13.82;;;;;;;;;;5114081;27;20031;-71
2023/08/19 00:04:40;;;;;;;15.00;13.80;;;;;;;;;;5132369;27;20119;-69
2023/08/19 00:07:06;;;;;;;14.23;12.88;;;;;;;;;;5114070;27;20277;-70
2023/08/19 00:09:36;;;;;;;14.43;13.25;;;;;;;;;;5132351;27;20204;-70
2023/08/19 00:12:02;;;;;;;15.98;14.45;;;;;;;;;;5132474;27;20027;-71
2023/08/19 00:14:28;;;;;;;16.13;13.93;;;;;;;;;;5131865;27;20058;-69
2023/08/19 00:16:54;;;;;;;15.45;13.93;;;;;;;;;;5133535;27;20564;-71
2023/08/19 00:19:20;;;;;;;16.55;15.23;;;;;;;;;;5135035;27;20073;-71
2023/08/19 00:21:46;;;;;;;18.55;15.55;;;;;;;;;;5135508;27;20039;-70
2023/08/19 00:24:12;;;;;;;18.27;15.88;;;;;;;;;;5131838;27;20027;-71
2023/08/19 00:26:38;;;;;;;16.38;14.80;;;;;;;;;;5132031;27;20046;-71
2023/08/19 00:29:04;;;;;;;17.23;15.45;;;;;;;;;;5113451;27;20497;-72
2023/08/19 00:31:30;;;;;;;16.50;15.20;;;;;;;;;;5113131;27;20035;-70
2023/08/19 00:33:56;;;;;;;17.73;16.08;;;;;;;;;;5096552;27;20096;-71
2023/08/19 00:36:22;;;;;;;16.42;15.07;;;;;;;;;;5131577;27;20061;-71
2023/08/19 00:38:56;;;;;;;16.75;15.52;;;;;;;;;;5112828;27;20077;-72
2023/08/19 00:41:22;;;;;;;20.20;17.55;;;;;;;;;;5113146;27;20047;-71
2023/08/19 00:43:48;;;;;;;22.52;20.30;;;;;;;;;;5131788;27;20031;-69
2023/08/19 00:46:14;;;;;;;24.15;20.15;;;;;;;;;;5131322;27;20035;-71
2023/08/19 00:48:41;;;;;;;19.73;17.75;;;;;;;;;;5131652;27;20475;-71
2023/08/19 00:51:07;;;;;;;25.33;18.23;;;;;;;;;;5113197;27;20047;-72
2023/08/19 00:53:33;;;;;;;17.95;16.05;;;;;;;;;;5131472;27;20039;-71
2023/08/19 00:55:59;;;;;;;17.52;16.02;;;;;;;;;;5131483;27;20074;-70
2023/08/19 00:58:25;;;;;;;18.42;16.52;;;;;;;;;;5131191;27;20070;-71
2023/08/19 01:00:53;;;;;;;22.33;17.83;;;;;;;;;;5113136;27;20034;-71
2023/08/19 01:03:19;;;;;;;19.48;17.60;;;;;;;;;;5131088;27;20378;-71
2023/08/19 01:06:03;;;;;;;19.33;17.35;;;;;;;;;;5112928;27;20083;-71
2023/08/19 01:08:33;;;;;;;21.52;18.90;;;;;;;;;;5112825;27;20455;-70
2023/08/19 01:11:05;;;;;;;19.83;17.80;;;;;;;;;;5112964;27;20035;-71
2023/08/19 01:13:32;;;;;;;19.65;17.63;;;;;;;;;;5130838;27;20100;-70
2023/08/19 01:16:04;;;;;;;20.20;18.17;;;;;;;;;;5112865;27;20051;-71
2023/08/19 01:18:30;;;;;;;21.23;18.25;;;;;;;;;;5112607;27;20361;-70
2023/08/19 01:20:56;;;;;;;21.60;19.35;;;;;;;;;;5131190;27;20316;-70
2023/08/19 01:23:24;;;;;;;25.35;18.95;;;;;;;;;;5130961;27;20068;-71
2023/08/19 01:25:50;;;;;;;20.35;18.27;;;;;;;;;;5112804;27;20165;-70
2023/08/19 01:28:18;;;;;;;20.70;18.83;;;;;;;;;;5112620;27;20031;-71
2023/08/19 01:30:44;;;;;;;23.73;18.60;;;;;;;;;;5130896;27;20031;-71
2023/08/19 01:33:10;;;;;;;21.15;18.95;;;;;;;;;;5130971;27;20509;-70
2023/08/19 01:35:38;;;;;;;21.27;18.98;;;;;;;;;;5112712;27;20076;-71
2023/08/19 01:38:08;;;;;;;19.50;17.50;;;;;;;;;;5131017;27;20042;-71
2023/08/19 01:40:34;;;;;;;19.98;18.23;;;;;;;;;;5130706;27;20133;-69
2023/08/19 01:43:00;;;;;;;22.13;17.13;;;;;;;;;;5112847;27;20592;-70
2023/08/19 01:45:26;;;;;;;17.35;15.85;;;;;;;;;;5130524;27;20067;-70
2023/08/19 01:47:55;;;;;;;17.27;15.82;;;;;;;;;;5112776;27;20561;-69
2023/08/19 01:50:21;;;;;;;17.63;16.17;;;;;;;;;;5114650;27;20083;-70
2023/08/19 01:52:47;;;;;;;16.48;14.95;;;;;;;;;;5116694;27;20031;-70
2023/08/19 01:55:13;;;;;;;17.08;15.35;;;;;;;;;;5099617;27;20046;-70
2023/08/19 01:57:39;;;;;;;17.90;15.43;;;;;;;;;;5134997;27;20042;-70
2023/08/19 02:00:07;;;;;;;17.05;15.35;;;;;;;;;;5135373;27;20443;-72
2023/08/19 02:02:42;;;;;;;19.08;15.90;;;;;;;;;;5136253;27;20115;-70
2023/08/19 02:05:12;;;;;;;17.95;16.05;;;;;;;;;;5135324;27;20039;-71
2023/08/19 02:07:39;;;;;;;16.83;15.45;;;;;;;;;;5134662;27;20031;-70
2023/08/19 02:10:06;;;;;;;15.60;14.18;;;;;;;;;;5134651;27;20062;-70
2023/08/19 02:12:34;;;;;;;15.55;14.20;;;;;;;;;;5134562;27;20489;-69
2023/08/19 02:15:03;;;;;;;14.80;13.43;;;;;;;;;;5112485;28;20051;-69
2023/08/19 02:17:49;;;;;;;14.55;12.93;;;;;;;;;;5098798;28;20527;-71
2023/08/19 02:20:15;;;;;;;15.55;14.20;;;;;;;;;;5112428;28;20035;-70
2023/08/19 02:22:41;;;;;;;18.55;15.70;;;;;;;;;;5113989;28;20040;-71
2023/08/19 02:25:08;;;;;;;19.77;16.98;;;;;;;;;;5113958;28;20055;-70
2023/08/19 02:27:34;;;;;;;21.30;19.25;;;;;;;;;;5112603;28;20036;-70
2023/08/19 02:30:00;;;;;;;20.63;18.63;;;;;;;;;;5113742;28;20490;-70
2023/08/19 02:32:26;;;;;;;18.98;17.00;;;;;;;;;;5113532;28;20041;-70
2023/08/19 02:34:52;;;;;;;18.98;16.73;;;;;;;;;;5113616;28;20047;-70
2023/08/19 02:37:19;;;;;;;20.83;18.60;;;;;;;;;;5113357;28;20031;-70
2023/08/19 02:39:45;;;;;;;20.42;18.30;;;;;;;;;;5113384;27;20035;-69
2023/08/19 02:42:15;;;;;;;19.65;17.90;;;;;;;;;;5113307;28;20038;-70
2023/08/19 02:44:42;;;;;;;21.73;19.48;;;;;;;;;;5113446;28;20028;-70
2023/08/19 02:47:07;;;;;;;22.38;19.65;;;;;;;;;;5112144;28;20144;-69
2023/08/19 02:49:33;;;;;;;19.77;17.80;;;;;;;;;;5113081;28;20047;-70
2023/08/19 02:51:59;;;;;;;18.85;16.77;;;;;;;;;;5111963;28;20035;-72
2023/08/19 02:54:25;;;;;;;17.65;15.77;;;;;;;;;;5112873;28;20126;-70
2023/08/19 02:56:52;;;;;;;18.17;16.35;;;;;;;;;;5113080;28;20097;-71
2023/08/19 02:59:17;;;;;;;15.95;14.18;;;;;;;;;;5111419;28;20059;-71
2023/08/19 03:01:44;;;;;;;17.20;14.10;;;;;;;;;;5112145;28;20595;-70
2023/08/19 03:04:09;;;;;;;17.60;14.18;;;;;;;;;;5113356;28;20036;-70
2023/08/19 03:06:36;;;;;;;20.45;15.02;;;;;;;;;;5111714;28;20036;-70
2023/08/19 03:09:02;;;;;;;15.93;14.57;;;;;;;;;;5111943;28;20035;-70
2023/08/19 03:11:28;;;;;;;18.15;16.35;;;;;;;;;;5112728;28;20129;-70
2023/08/19 03:13:54;;;;;;;18.58;16.88;;;;;;;;;;5122077;27;20068;-71
2023/08/19 03:16:20;;;;;;;19.38;16.45;;;;;;;;;;5133060;27;20141;-68
2023/08/19 03:18:46;;;;;;;20.45;17.67;;;;;;;;;;5133615;27;20067;-71
2023/08/19 03:21:12;;;;;;;20.35;18.27;;;;;;;;;;5133447;27;20059;-71
2023/08/19 03:23:38;;;;;;;20.85;18.83;;;;;;;;;;5133420;27;20505;-70
2023/08/19 03:26:05;;;;;;;26.88;18.40;;;;;;;;;;5133651;27;20449;-72
2023/08/19 03:28:31;;;;;;;20.70;16.77;;;;;;;;;;5116097;27;20059;-70
2023/08/19 03:30:57;;;;;;;17.90;16.33;;;;;;;;;;5137557;27;20076;-69
2023/08/19 03:33:24;;;;;;;18.73;14.80;;;;;;;;;;5118253;27;20039;-71
2023/08/19 03:35:51;;;;;;;16.35;14.73;;;;;;;;;;5114953;27;20047;-69
2023/08/19 03:38:17;;;;;;;15.82;14.25;;;;;;;;;;5133059;27;20505;-70
2023/08/19 03:40:43;;;;;;;14.48;12.98;;;;;;;;;;5132749;27;20393;-72
2023/08/19 03:43:12;;;;;;;13.88;12.77;;;;;;;;;;5114613;27;20039;-70
2023/08/19 03:45:38;;;;;;;18.55;12.98;;;;;;;;;;5132780;27;20035;-71
2023/08/19 03:48:04;;;;;;;14.18;12.40;;;;;;;;;;5114696;27;20039;-71
2023/08/19 03:50:30;;;;;;;12.32;11.10;;;;;;;;;;5114046;27;20031;-71
2023/08/19 03:52:56;;;;;;;13.30;12.07;;;;;;;;;;5114485;27;20247;-70
2023/08/19 03:55:22;;;;;;;13.77;10.98;;;;;;;;;;5132171;27;20038;-71
2023/08/19 03:57:48;;;;;;;13.65;10.98;;;;;;;;;;5132671;27;20042;-74
2023/08/19 04:00:14;;;;;;;12.05;10.88;;;;;;;;;;5132639;27;20113;-70
2023/08/19 04:02:40;;;;;;;12.25;10.98;;;;;;;;;;5132369;27;20047;-70
2023/08/19 04:05:08;;;;;;;11.80;10.70;;;;;;;;;;5132432;27;20031;-70
2023/08/19 04:07:34;;;;;;;11.73;10.57;;;;;;;;;;5132182;27;20031;-72
2023/08/19 04:10:00;;;;;;;11.60;10.70;;;;;;;;;;5132361;27;20088;-71
2023/08/19 04:12:27;;;;;;;18.75;11.32;;;;;;;;;;5113923;27;20046;-69
2023/08/19 04:14:53;;;;;;;13.07;11.65;;;;;;;;;;5113841;27;20580;-70
2023/08/19 04:17:19;;;;;;;11.98;11.00;;;;;;;;;;5113758;27;20413;-71
2023/08/19 04:19:45;;;;;;;12.90;11.48;;;;;;;;;;5113851;27;20113;-71
2023/08/19 04:22:12;;;;;;;11.88;10.77;;;;;;;;;;5113777;27;20035;-70
2023/08/19 04:24:37;;;;;;;12.23;11.02;;;;;;;;;;5132020;27;20032;-70
2023/08/19 04:27:04;;;;;;;10.93;9.95;;;;;;;;;;5132093;27;20038;-71
2023/08/19 04:29:32;;;;;;;10.80;9.80;;;;;;;;;;5113241;27;20436;-71
2023/08/19 04:31:59;;;;;;;10.80;9.70;;;;;;;;;;5113682;27;20038;-71
2023/08/19 04:34:26;;;;;;;12.98;9.95;;;;;;;;;;5113308;27;20039;-71
2023/08/19 04:36:53;;;;;;;10.68;9.88;;;;;;;;;;5113322;27;20039;-70
2023/08/19 04:39:20;;;;;;;10.27;9.10;;;;;;;;;;5113462;27;20030;-70
2023/08/19 04:41:47;;;;;;;10.07;9.02;;;;;;;;;;5131382;27;20121;-72
2023/08/19 04:44:17;;;;;;;11.07;9.55;;;;;;;;;;5113468;27;20034;-70
2023/08/19 04:46:43;;;;;;;10.43;9.25;;;;;;;;;;5131264;27;20035;-70
2023/08/19 04:49:09;;;;;;;10.77;9.45;;;;;;;;;;5113516;27;20060;-71
2023/08/19 04:51:36;;;;;;;11.95;9.38;;;;;;;;;;5113083;27;20152;-71
2023/08/19 04:54:03;;;;;;;10.93;9.73;;;;;;;;;;5131483;27;20537;-70
2023/08/19 04:56:29;;;;;;;9.88;8.93;;;;;;;;;;5114181;27;20514;-70
2023/08/19 04:58:55;;;;;;;14.32;9.52;;;;;;;;;;5113403;27;20031;-71
2023/08/19 05:01:23;;;;;;;10.68;9.63;;;;;;;;;;5113097;27;20039;-73
2023/08/19 05:03:49;;;;;;;12.07;10.10;;;;;;;;;;5112943;27;20034;-70
2023/08/19 05:06:15;;;;;;;10.13;9.15;;;;;;;;;;5131506;27;20389;-70
2023/08/19 05:08:42;;;;;;;10.27;9.20;;;;;;;;;;5096106;27;20553;-71
2023/08/19 05:11:08;;;;;;;9.50;8.90;;;;;;;;;;5112795;27;20027;-71
2023/08/19 05:13:34;;;;;;;9.32;8.63;;;;;;;;;;5112334;27;20059;-71
2023/08/19 05:16:00;;;;;;;10.93;8.48;;;;;;;;;;5112636;27;20050;-71
2023/08/19 05:18:27;;;;;;;11.00;9.32;;;;;;;;;;5112520;27;20031;-70
2023/08/19 05:20:53;;;;;;;11.18;10.07;;;;;;;;;;5130890;27;20042;-71
2023/08/19 05:23:19;;;;;;;8.70;8.00;;;;;;;;;;5095624;27;20031;-71
2023/08/19 05:25:45;;;;;;;9.93;8.90;;;;;;;;;;5094949;27;20529;-71
2023/08/19 05:28:12;;;;;;;8.10;7.55;;;;;;;;;;5131161;27;20120;-72
2023/08/19 05:30:37;;;;;;;8.60;7.82;;;;;;;;;;5112497;28;20084;-71
2023/08/19 05:33:03;;;;;;;10.43;7.95;;;;;;;;;;5112581;27;20030;-71
2023/08/19 05:35:30;;;;;;;8.32;7.63;;;;;;;;;;5112099;28;20053;-72
2023/08/19 05:37:56;;;;;;;9.48;8.70;;;;;;;;;;5130953;27;20303;-72
2023/08/19 05:40:22;;;;;;;8.32;7.60;;;;;;;;;;5130789;27;20307;-71
2023/08/19 05:42:47;;;;;;;10.25;8.07;;;;;;;;;;5130669;27;20536;-71
2023/08/19 05:45:14;;;;;;;12.25;8.93;;;;;;;;;;5131105;27;20039;-71
2023/08/19 05:47:40;;;;;;;9.07;8.30;;;;;;;;;;5112810;28;20526;-72
2023/08/19 05:50:07;;;;;;;9.95;8.18;;;;;;;;;;5131392;27;20096;-70
2023/08/19 05:52:33;;;;;;;8.13;7.32;;;;;;;;;;5112514;27;20413;-71
2023/08/19 05:54:59;;;;;;;9.02;8.15;;;;;;;;;;5131193;27;20077;-71
2023/08/19 05:57:25;;;;;;;9.27;7.60;;;;;;;;;;5131266;27;20561;-72
2023/08/19 05:59:52;;;;;;;9.90;7.80;;;;;;;;;;5131244;27;20039;-69
2023/08/19 06:02:18;;;;;;;15.00;7.35;;;;;;;;;;5113129;27;20485;-73
2023/08/19 06:04:44;;;;;;;8.77;7.40;;;;;;;;;;5131146;27;20497;-72
2023/08/19 06:07:11;;;;;;;8.63;7.10;;;;;;;;;;5112571;28;20027;-71
2023/08/19 06:09:37;;;;;;;8.25;7.35;;;;;;;;;;5130545;27;20027;-70
2023/08/19 06:12:04;;;;;;;7.30;6.70;;;;;;;;;;5130728;27;20413;-71
2023/08/19 06:14:30;;;;;;;10.25;7.43;;;;;;;;;;5130110;27;20055;-73
2023/08/19 06:16:56;;;;;;;7.47;6.68;;;;;;;;;;5112533;27;20493;-71
2023/08/19 06:19:22;;;;;;;11.60;6.60;;;;;;;;;;5130637;27;20063;-72
2023/08/19 06:21:49;;;;;;;8.15;6.95;;;;;;;;;;5111785;28;20493;-71
2023/08/19 06:24:15;;;;;;;9.50;7.32;;;;;;;;;;5130720;27;20042;-72
2023/08/19 06:26:41;;;;;;;6.97;6.38;;;;;;;;;;5112248;27;20039;-72
2023/08/19 06:29:08;;;;;;;9.18;6.97;;;;;;;;;;5130639;27;20126;-72
2023/08/19 06:31:34;;;;;;;8.45;7.38;;;;;;;;;;5130173;27;20034;-70
2023/08/19 06:34:00;;;;;;;8.85;6.57;;;;;;;;;;5131173;27;20039;-71
2023/08/19 06:36:28;;;;;;;7.82;7.05;;;;;;;;;;5133653;27;20054;-70
2023/08/19 06:39:06;;;;;;;7.07;6.40;;;;;;;;;;5136403;27;20509;-71
2023/08/19 06:41:33;;;;;;;8.85;6.70;;;;;;;;;;5135601;27;20065;-72
2023/08/19 06:44:01;;;;;;;7.00;6.35;;;;;;;;;;5099550;27;20063;-71
2023/08/19 06:46:27;;;;;;;7.67;6.93;;;;;;;;;;5098987;27;20054;-71
2023/08/19 06:48:53;;;;;;;9.43;6.28;;;;;;;;;;5115467;27;20061;-71
2023/08/19 06:51:20;;;;;;;6.90;6.30;;;;;;;;;;5133728;27;20058;-72
2023/08/19 06:53:46;;;;;;;7.75;6.63;;;;;;;;;;5115377;27;20067;-70
2023/08/19 06:56:12;;;;;;;8.75;6.70;;;;;;;;;;5133638;27;20074;-72
2023/08/19 06:58:43;;;;;;;7.57;6.95;;;;;;;;;;5098361;27;20039;-70
2023/08/19 07:01:14;;;;;;;7.07;6.55;;;;;;;;;;5133609;27;20088;-71
2023/08/19 07:03:40;;;;;;;7.35;6.75;;;;;;;;;;5098210;27;20401;-71
2023/08/19 07:06:07;;;;;;;7.18;6.47;;;;;;;;;;5115435;27;20050;-72
2023/08/19 07:08:33;;;;;;;7.93;6.85;;;;;;;;;;5115508;27;20035;-72
2023/08/19 07:11:02;;;;;;;7.53;6.78;;;;;;;;;;5133403;27;20497;-71
2023/08/19 07:13:28;;;;;;;;;;;;;;;;;;5133948;27;20047;-72
2023/08/19 07:16:01;;;;;;;7.30;6.70;;;;;;;;;;5133336;27;20347;-73
2023/08/19 07:18:27;;;;;;;7.72;6.80;;;;;;;;;;5133557;27;20120;-73
2023/08/19 07:20:54;;;;;;;8.85;7.00;;;;;;;;;;5114898;27;20043;-72
2023/08/19 07:23:21;;;;;;;7.18;6.50;;;;;;;;;;5115044;27;20119;-72
2023/08/19 07:25:47;;;;;;;7.10;6.50;;;;;;;;;;5114795;27;20042;-73
2023/08/19 07:28:13;;;;;;;7.47;6.93;;;;;;;;;;5097893;27;20447;-71
2023/08/19 07:30:39;;;;;;;7.60;7.10;;;;;;;;;;5132815;27;20155;-72
2023/08/19 07:33:05;;;;;;;7.50;6.90;;;;;;;;;;5133067;27;20043;-72
2023/08/19 07:35:31;;;;;;;8.23;7.57;;;;;;;;;;5132994;27;20213;-73
2023/08/19 07:37:57;;;;;;;9.85;7.15;;;;;;;;;;5132783;27;20054;-72
2023/08/19 07:40:23;;;;;;;8.23;7.47;;;;;;;;;;5114796;27;20508;-72
2023/08/19 07:42:49;;;;;;;8.50;7.70;;;;;;;;;;5132579;27;20043;-72
2023/08/19 07:45:15;;;;;;;8.57;7.80;;;;;;;;;;5132978;27;20027;-72
2023/08/19 07:47:41;;;;;;;8.80;7.85;;;;;;;;;;5132784;27;20554;-72
2023/08/19 07:50:07;;;;;;;9.52;8.70;;;;;;;;;;5114872;27;20039;-72
2023/08/19 07:52:33;;;;;;;9.68;8.77;;;;;;;;;;5132804;27;20031;-74
2023/08/19 07:55:01;;;;;;;9.35;8.40;;;;;;;;;;5114186;27;20039;-72
2023/08/19 07:57:27;;;;;;;7.70;7.07;;;;;;;;;;5132470;27;20034;-72
2023/08/19 07:59:54;;;;;;;8.52;7.75;;;;;;;;;;5132236;27;20101;-72
2023/08/19 08:02:20;;;;;;;10.50;8.30;;;;;;;;;;5132365;27;20433;-72
2023/08/19 08:04:46;;;;;;;9.02;7.95;;;;;;;;;;5132379;27;20068;-71
2023/08/19 08:07:13;;;;;;;9.25;8.30;;;;;;;;;;5132382;27;20129;-70
2023/08/19 08:09:40;;;;;;;10.73;9.70;;;;;;;;;;5132050;27;20062;-70
2023/08/19 08:12:06;;;;;;;11.35;10.23;;;;;;;;;;5113813;27;20027;-72
2023/08/19 08:14:32;;;;;;;11.40;10.57;;;;;;;;;;5132210;27;20559;-73
2023/08/19 08:16:58;;;;;;;11.63;10.57;;;;;;;;;;5132436;27;20039;-71
2023/08/19 08:19:28;;;;;;;11.23;10.20;;;;;;;;;;5132813;27;20027;-72
2023/08/19 08:21:54;;;;;;;13.38;10.85;;;;;;;;;;5132825;27;20038;-72
2023/08/19 08:24:20;;;;;;;11.18;10.15;;;;;;;;;;5132498;27;20123;-73
2023/08/19 08:26:46;;;;;;;11.45;10.23;;;;;;;;;;5132207;27;20031;-72
2023/08/19 08:29:12;;;;;;;10.93;9.93;;;;;;;;;;5132508;27;20035;-74
2023/08/19 08:31:39;;;;;;;9.40;8.48;;;;;;;;;;5131957;27;20516;-71
2023/08/19 08:34:05;;;;;;;10.02;9.18;;;;;;;;;;5132063;27;20031;-71
2023/08/19 08:36:31;;;;;;;9.80;8.95;;;;;;;;;;5132005;27;20582;-73
2023/08/19 08:38:57;;;;;;;9.25;8.45;;;;;;;;;;5113683;27;20055;-73
2023/08/19 08:41:23;;;;;;;9.00;8.15;;;;;;;;;;5113366;27;20071;-71
2023/08/19 08:43:49;;;;;;;8.77;8.00;;;;;;;;;;5113291;27;20027;-72
2023/08/19 08:46:16;;;;;;;8.30;7.53;;;;;;;;;;5131812;27;20557;-72
2023/08/19 08:48:43;;;;;;;8.18;7.55;;;;;;;;;;5131468;27;20092;-73
2023/08/19 08:51:09;;;;;;;8.40;7.60;;;;;;;;;;5131436;27;20038;-73
2023/08/19 08:53:35;;;;;;;8.38;7.68;;;;;;;;;;5131592;27;20490;-73
2023/08/19 08:56:02;;;;;;;12.57;7.47;;;;;;;;;;5130927;27;20043;-73
2023/08/19 08:58:28;;;;;;;7.57;6.97;;;;;;;;;;5131222;27;20064;-73
2023/08/19 09:00:54;;;;;;;7.28;6.70;;;;;;;;;;5130729;27;20030;-72
2023/08/19 09:03:22;;;;;;;13.93;6.97;;;;;;;;;;5131312;27;20042;-72
2023/08/19 09:05:48;;;;;;;8.25;7.50;;;;;;;;;;5112781;27;20413;-71
2023/08/19 09:08:15;;;;;;;12.15;7.70;;;;;;;;;;5112981;27;20062;-72
2023/08/19 09:10:43;;;;;;;8.27;7.63;;;;;;;;;;5130955;27;20400;-71
2023/08/19 09:13:08;;;;;;;8.35;7.75;;;;;;;;;;5130861;27;20035;-72
2023/08/19 09:15:35;;;;;;;10.13;8.20;;;;;;;;;;5113037;27;20642;-72
2023/08/19 09:18:01;;;;;;;8.82;8.13;;;;;;;;;;5130797;27;20115;-72
2023/08/19 09:20:27;;;;;;;8.65;7.78;;;;;;;;;;5131045;27;20068;-72
2023/08/19 09:22:53;;;;;;;8.75;8.00;;;;;;;;;;5131028;27;20543;-72
2023/08/19 09:25:20;;;;;;;8.40;7.80;;;;;;;;;;5112681;27;20024;-72
2023/08/19 09:27:46;;;;;;;8.77;8.02;;;;;;;;;;5130948;27;20039;-72
2023/08/19 09:30:18;;;;;;;9.13;8.13;;;;;;;;;;5112922;28;20038;-73
2023/08/19 09:32:47;;;;;;;8.48;7.75;;;;;;;;;;5130782;27;20043;-74
2023/08/19 09:35:14;;;;;;;9.05;8.25;;;;;;;;;;5112828;27;20047;-72
2023/08/19 09:37:40;;;;;;;8.27;7.57;;;;;;;;;;5131254;27;20030;-72
2023/08/19 09:40:17;;;;;;;8.30;7.50;;;;;;;;;;5131505;27;20031;-72
2023/08/19 09:42:47;;;;;;;9.77;7.13;;;;;;;;;;5132910;27;20103;-72
2023/08/19 09:45:20;;;;;;;8.13;7.43;;;;;;;;;;5133140;27;20057;-73
2023/08/19 09:47:47;;;;;;;8.63;7.80;;;;;;;;;;5131666;27;20079;-73
2023/08/19 09:50:13;;;;;;;8.82;8.07;;;;;;;;;;5130533;27;20129;-73
2023/08/19 09:52:40;;;;;;;8.48;7.22;;;;;;;;;;5130491;27;20474;-72
2023/08/19 09:55:06;;;;;;;11.95;8.52;;;;;;;;;;5130368;27;20449;-72
2023/08/19 09:57:35;;;;;;;13.30;8.98;;;;;;;;;;5130717;27;20035;-73
2023/08/19 10:00:06;;;;;;;9.15;8.27;;;;;;;;;;5130592;27;20058;-72
2023/08/19 10:02:34;;;;;;;9.43;7.60;;;;;;;;;;5112536;28;20031;-73
2023/08/19 10:05:03;;;;;;;8.82;8.07;;;;;;;;;;5130434;27;20031;-72
2023/08/19 10:07:31;;;;;;;9.02;8.38;;;;;;;;;;5130511;27;20035;-72
2023/08/19 10:09:57;;;;;;;9.27;8.38;;;;;;;;;;5130459;27;20035;-72
2023/08/19 10:12:23;;;;;;;8.25;7.57;;;;;;;;;;5116322;27;20438;-73
2023/08/19 10:14:49;;;;;;;8.25;7.65;;;;;;;;;;5115717;27;20107;-71
2023/08/19 10:17:15;;;;;;;8.18;7.55;;;;;;;;;;5134456;27;20046;-71
2023/08/19 10:19:48;;;;;;;8.60;7.22;;;;;;;;;;5116118;27;20035;-73
2023/08/19 10:22:14;;;;;;;8.18;7.47;;;;;;;;;;5134600;27;20035;-72
2023/08/19 10:24:41;;;;;;;12.15;8.32;;;;;;;;;;5116041;27;20171;-72
2023/08/19 10:27:14;;;;;;;8.80;8.13;;;;;;;;;;5134215;27;20557;-73
2023/08/19 10:29:40;;;;;;;8.10;7.45;;;;;;;;;;5134345;27;20027;-73
2023/08/19 10:32:33;;;;;;;10.18;7.20;;;;;;;;;;5133850;27;20043;-71
2023/08/19 10:35:10;;;;;;;7.88;7.18;;;;;;;;;;5129607;27;20054;-71
2023/08/19 10:37:40;;;;;;;8.73;7.90;;;;;;;;;;5134196;27;20109;-72
2023/08/19 10:40:08;;;;;;;;;;;;;;;;;;5134478;27;20417;-73
2023/08/19 10:42:34;;;;;;;9.02;8.23;;;;;;;;;;5134784;27;19907;-70
2023/08/19 10:45:00;;;;;;;8.05;7.50;;;;;;;;;;5134396;27;20035;-73
2023/08/19 10:47:26;;;;;;;11.43;7.50;;;;;;;;;;5098650;27;20038;-74
2023/08/19 10:50:01;;;;;;;10.60;9.57;;;;;;;;;;5115818;27;20031;-73
2023/08/19 10:52:29;;;;;;;8.15;7.47;;;;;;;;;;5133896;27;20038;-71
2023/08/19 10:54:57;;;;;;;9.07;7.93;;;;;;;;;;5133558;27;20042;-72
2023/08/19 10:57:27;;;;;;;8.35;7.72;;;;;;;;;;5133647;27;20039;-71
2023/08/19 10:59:57;;;;;;;12.77;8.18;;;;;;;;;;5133671;27;20035;-72
2023/08/19 11:02:27;;;;;;;8.40;7.80;;;;;;;;;;5133843;27;20037;-72
2023/08/19 11:04:53;;;;;;;8.63;7.68;;;;;;;;;;5133565;27;20030;-73
2023/08/19 11:07:19;;;;;;;7.97;7.28;;;;;;;;;;5098121;27;20039;-72
2023/08/19 11:09:46;;;;;;;8.27;7.57;;;;;;;;;;5115416;27;20031;-71
2023/08/19 11:12:15;;;;;;;15.82;7.78;;;;;;;;;;5133444;27;20421;-72
2023/08/19 11:14:44;;;;;;;8.02;7.43;;;;;;;;;;5133237;27;20428;-72
2023/08/19 11:17:10;;;;;;;8.35;7.63;;;;;;;;;;5114868;27;20496;-73
2023/08/19 11:19:37;;;;;;;8.35;7.32;;;;;;;;;;5133365;27;20039;-72
2023/08/19 11:22:03;;;;;;;9.18;7.88;;;;;;;;;;5132366;27;20031;-73
2023/08/19 11:24:29;;;;;;;8.35;7.57;;;;;;;;;;5133313;27;20031;-73
2023/08/19 11:26:58;;;;;;;9.10;7.95;;;;;;;;;;5133083;27;20043;-72
2023/08/19 11:29:24;;;;;;;9.18;7.60;;;;;;;;;;5097712;27;20035;-70
2023/08/19 11:31:50;;;;;;;9.13;7.50;;;;;;;;;;5114646;27;20051;-71
2023/08/19 11:34:16;;;;;;;7.90;7.18;;;;;;;;;;5114881;27;20464;-72
2023/08/19 11:36:43;;;;;;;8.40;7.60;;;;;;;;;;5114717;27;20111;-73
2023/08/19 11:39:09;;;;;;;13.43;7.28;;;;;;;;;;5132861;27;20039;-73
2023/08/19 11:41:35;;;;;;;8.98;7.85;;;;;;;;;;5132995;27;20064;-72
2023/08/19 11:44:03;;;;;;;8.10;7.22;;;;;;;;;;5097285;27;20031;-72
2023/08/19 11:46:32;;;;;;;9.95;7.47;;;;;;;;;;5132844;27;20052;-72
2023/08/19 11:48:59;;;;;;;9.30;7.47;;;;;;;;;;5114176;27;20465;-73
2023/08/19 11:51:26;;;;;;;14.00;7.65;;;;;;;;;;5132733;27;20120;-72
2023/08/19 11:54:00;;;;;;;8.07;7.47;;;;;;;;;;5132389;27;20039;-73
2023/08/19 11:56:26;;;;;;;8.10;7.47;;;;;;;;;;5132490;27;20047;-72
2023/08/19 11:58:52;;;;;;;13.93;7.40;;;;;;;;;;5131204;27;20046;-72
2023/08/19 12:01:19;;;;;;;9.00;8.15;;;;;;;;;;5132627;27;20111;-73
2023/08/19 12:03:46;;;;;;;8.90;7.70;;;;;;;;;;5132366;27;20489;-72
2023/08/19 12:06:12;;;;;;;12.73;9.88;;;;;;;;;;5132210;27;20445;-73
2023/08/19 12:08:39;;;;;;;8.18;7.40;;;;;;;;;;5132232;27;20111;-72
2023/08/19 12:11:05;;;;;;;9.73;7.60;;;;;;;;;;5131363;27;20039;-74
2023/08/19 12:13:31;;;;;;;9.32;8.15;;;;;;;;;;5131964;27;20594;-71
2023/08/19 12:15:58;;;;;;;8.15;7.40;;;;;;;;;;5131650;27;20035;-72
2023/08/19 12:18:23;;;;;;;8.45;7.57;;;;;;;;;;5113619;27;20031;-72
2023/08/19 12:20:50;;;;;;;8.13;7.43;;;;;;;;;;5132196;27;20412;-72
2023/08/19 12:23:16;;;;;;;10.30;7.88;;;;;;;;;;5131825;27;20054;-73
2023/08/19 12:25:48;;;;;;;9.98;7.85;;;;;;;;;;5131936;27;20414;-72
2023/08/19 12:28:14;;;;;;;8.68;7.90;;;;;;;;;;5131764;27;20497;-73
2023/08/19 12:30:41;;;;;;;8.60;7.63;;;;;;;;;;5131993;27;20047;-72
2023/08/19 12:33:06;;;;;;;9.55;7.57;;;;;;;;;;5131480;27;20049;-73
2023/08/19 12:35:33;;;;;;;7.43;6.82;;;;;;;;;;5131000;27;20047;-72
2023/08/19 12:38:00;;;;;;;9.02;7.63;;;;;;;;;;5113208;27;20504;-72
2023/08/19 12:40:25;;;;;;;8.15;7.47;;;;;;;;;;5132017;27;20039;-73
2023/08/19 12:42:52;;;;;;;12.07;7.57;;;;;;;;;;5131961;27;20023;-72
2023/08/19 12:45:18;;;;;;;8.02;7.43;;;;;;;;;;5132169;27;20099;-72
2023/08/19 12:47:45;;;;;;;8.18;7.15;;;;;;;;;;5113896;27;20035;-72
2023/08/19 12:50:11;;;;;;;8.27;7.40;;;;;;;;;;5138434;27;20041;-71
2023/08/19 12:52:38;;;;;;;7.43;6.72;;;;;;;;;;5135735;27;20043;-73
2023/08/19 12:55:04;;;;;;;7.97;7.38;;;;;;;;;;5117752;27;20050;-72
2023/08/19 12:57:30;;;;;;;9.43;7.38;;;;;;;;;;5132606;27;20038;-72
2023/08/19 12:59:56;;;;;;;9.20;7.30;;;;;;;;;;5113029;27;20034;-73
2023/08/19 13:02:22;;;;;;;8.57;7.90;;;;;;;;;;5131252;27;20031;-72
2023/08/19 13:04:48;;;;;;;7.85;7.15;;;;;;;;;;5113105;27;20046;-71
2023/08/19 13:07:15;;;;;;;8.85;8.10;;;;;;;;;;5130816;27;20451;-73
2023/08/19 13:09:40;;;;;;;8.32;7.53;;;;;;;;;;5131214;27;20041;-72
2023/08/19 13:12:07;;;;;;;8.82;7.93;;;;;;;;;;5131098;27;20065;-72
2023/08/19 13:14:33;;;;;;;15.68;7.70;;;;;;;;;;5131055;27;20051;-72
2023/08/19 13:16:59;;;;;;;8.50;7.80;;;;;;;;;;5130979;27;20027;-73
2023/08/19 13:19:25;;;;;;;9.52;7.85;;;;;;;;;;5131179;27;20033;-73
2023/08/19 13:21:53;;;;;;;10.27;7.93;;;;;;;;;;5131029;27;20038;-71
2023/08/19 13:24:20;;;;;;;12.10;8.23;;;;;;;;;;5131249;27;20031;-72
2023/08/19 13:26:46;;;;;;;8.73;8.05;;;;;;;;;;5112836;27;20095;-72
2023/08/19 13:29:12;;;;;;;7.93;7.32;;;;;;;;;;5131179;27;20335;-73
2023/08/19 13:31:38;;;;;;;10.77;7.93;;;;;;;;;;5113136;28;20035;-71
2023/08/19 13:34:04;;;;;;;12.35;8.70;;;;;;;;;;5130750;27;20029;-72
2023/08/19 13:36:30;;;;;;;8.70;8.00;;;;;;;;;;5130922;27;20035;-72
2023/08/19 13:38:57;;;;;;;8.07;7.47;;;;;;;;;;5132249;27;20023;-73
2023/08/19 13:41:23;;;;;;;9.23;8.32;;;;;;;;;;5113775;28;20047;-72
2023/08/19 13:43:49;;;;;;;8.07;7.47;;;;;;;;;;5112776;27;20038;-73
2023/08/19 13:46:15;;;;;;;10.68;8.25;;;;;;;;;;5133106;27;20035;-71
2023/08/19 13:48:41;;;;;;;9.75;8.52;;;;;;;;;;5135057;27;20501;-71
2023/08/19 13:51:07;;;;;;;8.98;8.15;;;;;;;;;;5099692;27;20080;-73
2023/08/19 13:53:33;;;;;;;13.57;8.30;;;;;;;;;;5135030;27;20428;-73
2023/08/19 13:55:59;;;;;;;9.65;8.63;;;;;;;;;;5134884;27;20054;-73
2023/08/19 13:58:25;;;;;;;8.82;8.10;;;;;;;;;;5134805;27;20031;-72
2023/08/19 14:00:51;;;;;;;8.75;8.05;;;;;;;;;;5116696;27;20454;-71
2023/08/19 14:03:18;;;;;;;12.38;8.18;;;;;;;;;;5134528;27;20028;-72
2023/08/19 14:05:44;;;;;;;8.63;7.82;;;;;;;;;;5134729;27;20091;-72
2023/08/19 14:08:10;;;;;;;9.35;7.97;;;;;;;;;;5116245;27;20114;-72
2023/08/19 14:10:37;;;;;;;13.63;7.80;;;;;;;;;;5134745;27;20071;-71
2023/08/19 14:13:03;;;;;;;9.18;7.57;;;;;;;;;;5134463;27;20148;-71
2023/08/19 14:15:30;;;;;;;11.25;8.02;;;;;;;;;;5116193;27;20532;-71
2023/08/19 14:17:56;;;;;;;11.93;7.80;;;;;;;;;;5134699;27;20027;-71
2023/08/19 14:20:23;;;;;;;10.43;8.13;;;;;;;;;;5115898;27;20411;-72
2023/08/19 14:22:49;;;;;;;8.70;7.93;;;;;;;;;;5134429;27;20031;-71
2023/08/19 14:25:15;;;;;;;8.90;8.20;;;;;;;;;;5134311;27;20046;-72
2023/08/19 14:27:42;;;;;;;9.02;8.07;;;;;;;;;;5134327;27;20118;-71
2023/08/19 14:30:08;;;;;;;9.63;8.60;;;;;;;;;;5134186;27;20536;-71
2023/08/19 14:32:34;;;;;;;9.02;7.75;;;;;;;;;;5134350;27;20138;-73